Time;durP1;ratioP1;P1;durP2;ratioP2;P2;SDS_P1;SDS_P2;PMS_P1;PMS_P2;Temp;Humidity;BMP_temperature;BMP_pressure;BME280_temperature;BME280_humidity;BME280_pressure;Samples;Min_cycle;Max_cycle;Signal;HPM_P1;HPM_P2
2023/05/18 00:04:42;;;;;;;36.60;24.20;;;;;;;9.41;100.00;99578.52;274034;1266;22710;-89
2023/05/18 00:11:20;;;;;;;41.50;25.70;;;;;;;9.42;100.00;99574.86;273910;1266;22392;-85
2023/05/18 00:17:25;;;;;;;34.80;24.50;;;;;;;9.43;100.00;99577.69;274080;1266;22734;-85
2023/05/18 00:23:30;;;;;;;34.40;23.20;;;;;;;9.43;100.00;99581.50;273833;1256;22421;-86
2023/05/18 00:29:31;;;;;;;34.30;22.20;;;;;;;9.43;100.00;99574.87;274183;1266;23363;-85
2023/05/18 00:35:32;;;;;;;38.60;23.80;;;;;;;9.40;100.00;99568.64;273940;1257;22442;-85
2023/05/18 00:41:33;;;;;;;35.70;22.80;;;;;;;9.38;100.00;99567.58;272928;1266;22367;-87
2023/05/18 00:47:34;;;;;;;41.90;24.00;;;;;;;9.39;100.00;99570.10;271927;1257;22520;-85
2023/05/18 00:53:38;;;;;;;29.80;21.30;;;;;;;9.38;100.00;99568.42;273094;1267;22556;-85
2023/05/18 00:59:39;;;;;;;36.60;22.30;;;;;;;9.36;100.00;99569.63;272279;1266;22998;-84
2023/05/18 01:05:41;;;;;;;35.70;20.80;;;;;;;9.34;100.00;99574.64;271512;1258;22215;-85
2023/05/18 01:12:10;;;;;;;33.10;20.00;;;;;;;9.30;100.00;99576.89;274170;1256;22219;-85
2023/05/18 01:18:29;;;;;;;40.00;21.20;;;;;;;9.29;100.00;99580.14;274085;1256;22507;-87
2023/05/18 01:25:45;;;;;;;34.20;20.20;;;;;;;9.28;100.00;99582.23;274250;1253;23599;-85
2023/05/18 01:32:25;;;;;;;;;;;;;;;9.29;100.00;99582.79;273966;1266;23601;-85
2023/05/18 01:38:46;;;;;;;31.70;19.80;;;;;;;9.29;100.00;99585.84;272584;1264;22525;-85
2023/05/18 01:44:53;;;;;;;29.70;19.90;;;;;;;9.27;100.00;99589.63;271549;1260;22225;-85
2023/05/18 01:50:57;;;;;;;39.50;20.90;;;;;;;9.25;100.00;99592.69;271974;1266;22411;-84
2023/05/18 01:56:58;;;;;;;33.60;19.80;;;;;;;9.23;100.00;99597.55;274082;1257;22398;-84
2023/05/18 02:03:05;;;;;;;30.90;20.70;;;;;;;9.17;100.00;99596.06;273982;1267;22484;-86
2023/05/18 02:09:07;;;;;;;33.20;19.80;;;;;;;9.13;100.00;99598.08;272837;1264;22470;-84
2023/05/18 02:15:09;;;;;;;27.70;18.70;;;;;;;9.13;100.00;99599.40;274053;1267;23279;-84
2023/05/18 02:21:12;;;;;;;29.60;17.20;;;;;;;9.11;100.00;99603.95;273766;1266;22571;-84
2023/05/18 02:27:14;;;;;;;32.60;14.80;;;;;;;9.10;100.00;99602.67;274236;1251;23239;-85
2023/05/18 02:33:18;;;;;;;29.30;12.90;;;;;;;9.02;100.00;99606.91;274191;1266;22417;-86
2023/05/18 02:39:24;;;;;;;21.10;11.30;;;;;;;8.90;100.00;99615.95;274096;1265;22531;-86
2023/05/18 02:46:01;;;;;;;21.10;10.60;;;;;;;8.83;100.00;99614.58;274251;1253;23322;-85
2023/05/18 02:52:10;;;;;;;19.20;10.50;;;;;;;8.80;100.00;99620.41;273989;1267;22278;-89
2023/05/18 02:58:14;;;;;;;16.50;10.30;;;;;;;8.78;100.00;99623.94;273980;1261;22201;-88
2023/05/18 03:04:46;;;;;;;22.60;10.90;;;;;;;8.80;100.00;99627.59;274085;1267;22420;-88
2023/05/18 03:11:28;;;;;;;20.80;10.20;;;;;;;8.78;100.00;99636.21;273972;1266;22214;-87
2023/05/18 03:17:29;;;;;;;22.30;12.20;;;;;;;8.74;100.00;99642.48;274050;1267;22527;-86
2023/05/18 03:23:31;;;;;;;18.20;10.60;;;;;;;8.71;100.00;99648.30;274213;1266;22470;-86
2023/05/18 03:29:33;;;;;;;20.70;11.30;;;;;;;8.69;100.00;99651.92;274229;1254;22424;-86
2023/05/18 03:35:35;;;;;;;15.40;11.10;;;;;;;8.67;100.00;99656.17;273949;1266;22534;-86
2023/05/18 03:42:26;;;;;;;20.60;11.90;;;;;;;8.70;100.00;99659.04;271558;1267;22448;-86
2023/05/18 03:49:11;;;;;;;17.00;10.60;;;;;;;8.70;100.00;99667.39;273799;1266;22648;-86
2023/05/18 03:55:40;;;;;;;19.50;10.90;;;;;;;8.69;100.00;99678.23;272738;1253;25465;-86
2023/05/18 04:01:43;;;;;;;20.70;11.10;;;;;;;8.72;100.00;99687.73;273268;1253;22341;-86
2023/05/18 04:15:50;;;;;;;16.80;10.80;;;;;;;8.65;100.00;99703.73;272956;1267;22523;-89
2023/05/18 04:22:15;;;;;;;25.00;9.60;;;;;;;8.52;100.00;99712.22;273646;1267;22442;-86
2023/05/18 04:28:42;;;;;;;22.90;10.80;;;;;;;8.36;100.00;99720.46;273953;1257;23721;-86
2023/05/18 04:35:40;;;;;;;19.90;9.50;;;;;;;8.29;100.00;99733.27;273194;1266;23171;-87
2023/05/18 04:42:37;;;;;;;20.10;7.70;;;;;;;8.15;100.00;99743.23;273435;1266;22498;-88
2023/05/18 04:48:39;;;;;;;13.40;5.90;;;;;;;7.98;100.00;99749.27;273366;1270;23737;-87
2023/05/18 04:54:44;;;;;;;14.40;5.60;;;;;;;7.81;100.00;99756.52;273676;1260;23788;-88
2023/05/18 05:01:32;;;;;;;14.90;4.50;;;;;;;7.65;100.00;99754.88;273293;1266;22536;-86
2023/05/18 05:09:29;;;;;;;15.70;4.10;;;;;;;7.48;100.00;99750.54;272856;1272;23344;-85
2023/05/18 05:16:43;;;;;;;13.50;4.40;;;;;;;7.42;100.00;99758.45;272988;1267;23317;-86
2023/05/18 05:23:41;;;;;;;16.60;5.10;;;;;;;7.39;100.00;99775.89;273406;1266;23933;-86
2023/05/18 05:30:02;;;;;;;11.70;5.00;;;;;;;7.34;100.00;99776.27;272386;1260;24358;-85
2023/05/18 05:36:04;;;;;;;12.80;4.20;;;;;;;7.37;100.00;99780.40;272470;1270;22263;-86
2023/05/18 05:42:07;;;;;;;8.00;4.40;;;;;;;7.44;100.00;99787.18;270715;1269;23692;-86
2023/05/18 05:48:09;;;;;;;13.40;5.20;;;;;;;7.54;100.00;99786.22;270764;1270;22609;-86
2023/05/18 05:54:10;;;;;;;16.60;4.80;;;;;;;7.65;100.00;99796.66;270519;1267;22540;-86
2023/05/18 06:00:13;;;;;;;12.80;5.20;;;;;;;7.78;100.00;99797.45;271957;1266;22467;-87
2023/05/18 06:06:25;;;;;;;9.40;4.40;;;;;;;7.81;100.00;99802.29;270781;1266;22557;-87
2023/05/18 06:13:07;;;;;;;11.60;3.70;;;;;;;7.74;100.00;99811.48;271352;1264;23405;-87
2023/05/18 06:19:32;;;;;;;10.00;3.40;;;;;;;7.69;100.00;99816.42;273318;1265;22711;-85
2023/05/18 06:25:34;;;;;;;9.20;3.00;;;;;;;7.71;100.00;99821.48;272961;1267;22188;-86
2023/05/18 06:31:56;;;;;;;7.30;2.50;;;;;;;7.73;100.00;99828.84;273927;1260;22478;-85
2023/05/18 06:38:38;;;;;;;6.30;2.20;;;;;;;7.73;100.00;99834.17;273989;1266;23621;-86
2023/05/18 06:44:39;;;;;;;7.10;2.20;;;;;;;7.77;100.00;99838.85;273787;1266;22523;-84
2023/05/18 06:50:53;;;;;;;10.10;2.70;;;;;;;7.86;100.00;99843.70;273326;1260;22556;-84
2023/05/18 06:56:54;;;;;;;4.50;2.30;;;;;;;7.94;100.00;99849.48;266011;1266;10001516;-84
2023/05/18 07:02:55;;;;;;;10.60;2.40;;;;;;;8.03;100.00;99855.39;273524;1257;22383;-86
2023/05/18 07:09:12;;;;;;;6.90;2.40;;;;;;;7.99;100.00;99861.17;274090;1257;22370;-86
2023/05/18 07:15:53;;;;;;;8.10;2.50;;;;;;;7.96;100.00;99862.59;274124;1266;22254;-86
2023/05/18 07:22:15;;;;;;;8.10;2.60;;;;;;;7.98;100.00;99864.52;273490;1266;22570;-86
2023/05/18 07:28:16;;;;;;;7.10;2.00;;;;;;;8.00;100.00;99870.41;273956;1266;23160;-85
2023/05/18 07:34:22;;;;;;;12.00;2.40;;;;;;;8.06;100.00;99873.55;273190;1266;22432;-88
2023/05/18 07:40:27;;;;;;;6.10;2.60;;;;;;;8.05;100.00;99876.45;273661;1266;22525;-85
2023/05/18 07:46:32;;;;;;;5.50;1.80;;;;;;;8.09;100.00;99879.21;274291;1258;22406;-89
2023/05/18 07:52:52;;;;;;;11.30;2.00;;;;;;;8.12;100.00;99882.35;273759;1266;22449;-87
2023/05/18 07:58:57;;;;;;;9.30;1.80;;;;;;;8.02;100.00;99881.46;273277;1263;23683;-86
2023/05/18 08:05:45;;;;;;;11.20;2.10;;;;;;;7.97;100.00;99885.43;274093;1266;22903;-87
2023/05/18 08:12:11;;;;;;;11.50;1.90;;;;;;;8.03;100.00;99888.38;273524;1257;22372;-87
2023/05/18 08:19:09;;;;;;;;;;;;;;;;;;;;;
2023/05/18 08:25:21;;;;;;;5.00;2.00;;;;;;;8.10;100.00;99888.82;273879;1266;22231;-88
2023/05/18 08:32:06;;;;;;;6.30;1.60;;;;;;;8.10;100.00;99894.77;273814;1265;22414;-88
2023/05/18 08:38:16;;;;;;;11.00;2.70;;;;;;;8.12;100.00;99899.58;274213;1266;22581;-87
2023/05/18 08:44:51;;;;;;;13.60;2.70;;;;;;;8.11;100.00;99902.27;273975;1267;23164;-88
2023/05/18 08:50:53;;;;;;;8.80;2.60;;;;;;;8.14;100.00;99908.77;273933;1266;22309;-87
2023/05/18 08:57:11;;;;;;;5.90;2.40;;;;;;;8.14;100.00;99907.77;274002;1265;22209;-86
2023/05/18 09:03:20;;;;;;;6.50;2.50;;;;;;;8.21;100.00;99903.11;274135;1266;22421;-87
2023/05/18 09:09:28;;;;;;;6.30;2.50;;;;;;;8.28;100.00;99904.69;273973;1266;23100;-87
2023/05/18 09:15:31;;;;;;;6.40;2.40;;;;;;;8.38;100.00;99898.41;274047;1266;22252;-87
2023/05/18 09:21:32;;;;;;;6.80;2.60;;;;;;;8.47;100.00;99897.77;273777;1266;22434;-87
2023/05/18 09:27:34;;;;;;;7.30;2.90;;;;;;;8.52;100.00;99894.27;273377;1253;22272;-88
2023/05/18 09:33:57;;;;;;;9.10;2.30;;;;;;;8.55;100.00;99894.55;273439;1250;22521;-87
2023/05/18 09:40:05;;;;;;;6.20;2.10;;;;;;;8.57;100.00;99894.75;272268;1266;22193;-87
2023/05/18 09:46:08;;;;;;;5.70;2.40;;;;;;;8.56;100.00;99892.69;274110;1257;22180;-87
2023/05/18 09:52:11;;;;;;;7.40;2.20;;;;;;;8.57;100.00;99891.35;273950;1267;22606;-88
2023/05/18 09:58:35;;;;;;;9.90;2.40;;;;;;;8.59;100.00;99895.62;273838;1266;151027;-88
2023/05/18 10:04:41;;;;;;;4.80;1.90;;;;;;;8.58;100.00;99896.35;274418;1266;23168;-87
2023/05/18 10:11:06;;;;;;;7.20;2.10;;;;;;;8.48;100.00;99896.89;274116;1266;22615;-88
2023/05/18 10:17:10;;;;;;;9.60;2.80;;;;;;;8.49;100.00;99888.59;271129;1267;22634;-87
2023/05/18 10:23:11;;;;;;;7.30;2.20;;;;;;;8.53;100.00;99888.46;273288;1266;22974;-87
2023/05/18 10:29:13;;;;;;;4.40;2.20;;;;;;;8.62;100.00;99891.90;273324;1266;22324;-87
2023/05/18 10:35:15;;;;;;;7.30;2.80;;;;;;;8.71;100.00;99887.65;265869;1266;10004114;-88
2023/05/18 10:41:17;;;;;;;6.70;2.00;;;;;;;8.80;100.00;99890.99;273903;1266;22390;-86
2023/05/18 10:47:19;;;;;;;6.10;2.10;;;;;;;8.79;100.00;99896.27;274064;1265;22584;-87
2023/05/18 10:54:35;;;;;;;10.70;2.30;;;;;;;8.83;100.00;99895.07;273442;1266;22418;-89
2023/05/18 11:01:32;;;;;;;6.10;2.60;;;;;;;8.81;100.00;99898.98;273431;1267;22395;-88
2023/05/18 11:08:02;;;;;;;5.10;2.00;;;;;;;8.84;100.00;99893.41;273442;1266;22524;-89
2023/05/18 11:15:04;;;;;;;7.70;2.60;;;;;;;8.84;100.00;99899.94;273669;1269;22555;-89
2023/05/18 11:22:23;;;;;;;4.90;2.30;;;;;;;8.85;100.00;99906.14;272273;1268;22466;-88
2023/05/18 11:29:19;;;;;;;6.80;2.60;;;;;;;8.91;100.00;99911.50;273614;1266;22238;-88
2023/05/18 11:36:24;;;;;;;8.00;3.00;;;;;;;8.91;100.00;99909.98;272331;1275;22424;-89
2023/05/18 11:50:57;;;;;;;7.30;2.40;;;;;;;8.92;100.00;99925.73;272963;1266;22247;-88
2023/05/18 11:57:18;;;;;;;6.10;2.40;;;;;;;8.97;100.00;99932.91;273460;1266;22660;-89
2023/05/18 12:03:24;;;;;;;6.60;2.70;;;;;;;8.95;100.00;99937.04;273339;1266;22829;-88
2023/05/18 12:17:19;;;;;;;7.40;2.50;;;;;;;8.92;100.00;99935.80;273225;1260;23164;-89
2023/05/18 12:23:36;;;;;;;5.60;2.30;;;;;;;8.93;100.00;99933.02;273660;1266;22471;-89
2023/05/18 12:29:43;;;;;;;6.00;2.30;;;;;;;9.00;100.00;99934.25;273150;1266;23432;-88
2023/05/18 12:36:04;;;;;;;;;;;;;;;9.08;100.00;99930.20;273512;1266;22590;-87
2023/05/18 12:43:39;;;;;;;10.40;4.50;;;;;;;9.12;100.00;99923.23;273539;1263;22401;-88
2023/05/18 12:49:49;;;;;;;7.50;3.50;;;;;;;9.24;100.00;99922.16;272483;1267;22449;-88
2023/05/18 12:56:24;;;;;;;6.90;3.40;;;;;;;9.44;100.00;99919.86;273527;1266;22562;-87
2023/05/18 13:02:55;;;;;;;5.70;3.10;;;;;;;9.53;100.00;99922.80;273303;1266;22690;-87
2023/05/18 13:09:15;;;;;;;9.30;3.10;;;;;;;9.53;100.00;99921.88;273266;1266;23067;-88
2023/05/18 13:15:19;;;;;;;7.60;2.90;;;;;;;9.46;100.00;99921.66;274080;1266;23631;-85
2023/05/18 13:21:23;;;;;;;8.10;3.00;;;;;;;9.48;100.00;99923.74;273674;1266;22913;-88
2023/05/18 13:27:28;;;;;;;6.50;3.50;;;;;;;9.60;100.00;99923.63;273948;1257;22217;-86
2023/05/18 13:33:31;;;;;;;8.60;3.40;;;;;;;9.67;100.00;99916.47;272867;1267;23907;-86
2023/05/18 13:40:14;;;;;;;7.00;3.40;;;;;;;9.66;100.00;99912.98;273389;1263;23250;-86
2023/05/18 13:46:36;;;;;;;9.40;3.60;;;;;;;9.53;100.00;99912.65;273986;1266;22416;-86
2023/05/18 13:52:51;;;;;;;7.30;3.20;;;;;;;9.47;100.00;99910.43;273920;1253;22305;-87
2023/05/18 13:58:55;;;;;;;7.70;3.10;;;;;;;9.47;100.00;99911.36;273978;1266;22215;-86
2023/05/18 14:04:57;;;;;;;5.30;2.90;;;;;;;9.44;100.00;99911.05;273846;1263;22964;-85
2023/05/18 14:11:17;;;;;;;6.90;2.80;;;;;;;9.33;100.00;99912.25;273940;1261;22423;-87
2023/05/18 14:18:00;;;;;;;6.40;3.10;;;;;;;9.27;100.00;99912.33;274027;1266;22203;-86
2023/05/18 14:24:45;;;;;;;6.60;3.20;;;;;;;9.31;100.00;99911.89;273286;1266;22442;-87
2023/05/18 14:30:52;;;;;;;5.20;2.90;;;;;;;9.34;100.00;99909.70;273462;1266;22737;-86
2023/05/18 14:36:53;;;;;;;4.50;3.10;;;;;;;9.34;100.00;99908.23;273143;1266;22252;-86
2023/05/18 14:42:54;;;;;;;6.90;2.70;;;;;;;9.28;100.00;99907.73;273328;1266;22373;-87
2023/05/18 14:48:56;;;;;;;8.30;2.80;;;;;;;9.18;100.00;99904.06;273904;1266;23281;-87
2023/05/18 14:54:58;;;;;;;10.00;2.70;;;;;;;9.14;100.00;99901.67;273857;1264;22674;-87
2023/05/18 15:01:00;;;;;;;6.20;2.80;;;;;;;9.13;100.00;99903.39;272582;1269;23752;-88
2023/05/18 15:08:10;;;;;;;;;;;;;;;;;;;;;
2023/05/18 15:21:58;;;;;;;11.00;2.70;;;;;;;9.08;100.00;99900.10;273943;1266;23556;-89
2023/05/18 15:28:02;;;;;;;;;;;;;;;9.03;100.00;99903.98;273876;1270;22490;-88
2023/05/18 15:42:30;;;;;;;8.80;3.20;;;;;;;9.02;100.00;99909.64;274192;1267;22773;-89
2023/05/18 15:48:32;;;;;;;8.70;3.00;;;;;;;9.00;100.00;99912.55;273911;1267;22428;-88
2023/05/18 15:55:22;;;;;;;4.50;2.90;;;;;;;8.99;100.00;99913.45;273326;1267;22493;-89
2023/05/18 16:01:49;;;;;;;6.80;3.50;;;;;;;9.01;100.00;99916.52;273983;1267;22617;-88
2023/05/18 16:07:51;;;;;;;7.90;3.20;;;;;;;9.05;100.00;99918.27;273730;1266;23159;-90
2023/05/18 16:45:54;;;;;;;8.60;3.50;;;;;;;8.98;100.00;99927.80;274124;1267;22423;-88
2023/05/18 16:52:48;;;;;;;7.00;2.90;;;;;;;8.95;100.00;99932.14;273971;1269;23096;-89
2023/05/18 17:07:08;;;;;;;6.60;3.30;;;;;;;8.84;100.00;99943.00;274300;1269;22209;-89
2023/05/18 17:28:59;;;;;;;7.40;2.70;;;;;;;8.72;100.00;99958.44;273378;1266;22427;-88
2023/05/18 17:35:04;;;;;;;7.40;2.70;;;;;;;8.67;100.00;99955.71;265930;1266;10001947;-88
2023/05/18 17:41:07;;;;;;;5.90;3.60;;;;;;;8.63;100.00;99951.05;273950;1265;22456;-90
2023/05/18 17:47:09;;;;;;;12.50;6.50;;;;;;;8.59;100.00;99951.05;273825;1269;22418;-89
2023/05/18 18:01:14;;;;;;;13.30;7.60;;;;;;;8.47;100.00;99958.83;274299;1272;22421;-91
2023/05/18 18:07:17;;;;;;;9.40;5.20;;;;;;;8.44;100.00;99965.21;273602;1267;23042;-89
2023/05/18 18:13:18;;;;;;;11.60;5.00;;;;;;;8.39;100.00;99968.23;273826;1267;22838;-89
2023/05/18 18:19:20;;;;;;;9.50;4.10;;;;;;;8.30;100.00;99969.29;272266;1266;25274;-90
2023/05/18 18:26:18;;;;;;;9.10;3.70;;;;;;;8.28;100.00;99973.06;272905;1273;22293;-89
2023/05/18 18:33:06;;;;;;;8.60;4.50;;;;;;;8.26;100.00;99971.31;272330;1267;25510;-91
2023/05/18 18:39:10;;;;;;;6.80;3.90;;;;;;;8.26;100.00;99973.75;272258;1266;23779;-91
2023/05/18 18:45:30;;;;;;;5.80;4.20;;;;;;;8.28;100.00;99977.16;272764;1267;22230;-91
2023/05/18 18:51:34;;;;;;;12.50;6.40;;;;;;;8.30;100.00;99979.36;272368;1266;22625;-90
2023/05/18 18:57:35;;;;;;;7.00;4.90;;;;;;;8.28;100.00;99979.44;271410;1266;22515;-91
2023/05/18 19:03:39;;;;;;;14.90;6.20;;;;;;;8.23;100.00;99980.16;271878;1266;22562;-92
2023/05/18 19:10:43;;;;;;;12.80;5.50;;;;;;;8.22;100.00;99980.22;271835;1267;22658;-90
2023/05/18 19:16:48;;;;;;;13.60;5.90;;;;;;;8.20;100.00;99983.73;272754;1266;22419;-91
2023/05/18 19:23:07;;;;;;;14.30;5.80;;;;;;;8.19;100.00;99981.89;273007;1267;22607;-91
2023/05/18 19:29:20;;;;;;;16.40;7.20;;;;;;;8.17;100.00;99981.88;272771;1267;22531;-92
2023/05/18 19:35:24;;;;;;;10.30;5.90;;;;;;;8.16;100.00;99988.71;272511;1267;22557;-91
2023/05/18 19:41:26;;;;;;;13.90;5.60;;;;;;;8.16;100.00;99988.00;272848;1269;23073;-90
2023/05/18 19:47:28;;;;;;;17.80;7.10;;;;;;;8.16;100.00;99980.45;272587;1267;22990;-90
2023/05/18 19:53:30;;;;;;;16.20;6.50;;;;;;;8.18;100.00;99979.18;272649;1256;23333;-90
2023/05/18 19:59:32;;;;;;;15.80;6.70;;;;;;;8.20;100.00;99978.81;271774;1267;23537;-91
2023/05/18 20:05:48;;;;;;;10.50;6.00;;;;;;;8.20;100.00;99985.52;273093;1267;25418;-92
2023/05/18 20:11:50;;;;;;;10.70;7.00;;;;;;;8.21;100.00;99988.55;271916;1266;22566;-92
2023/05/18 20:17:51;;;;;;;14.20;7.60;;;;;;;8.20;100.00;99988.63;272744;1267;22564;-90
2023/05/18 20:23:53;;;;;;;14.10;7.10;;;;;;;8.19;100.00;99991.91;272813;1268;22281;-90
2023/05/18 20:29:57;;;;;;;17.90;9.20;;;;;;;8.17;100.00;99992.25;273990;1267;22443;-91
2023/05/18 20:36:00;;;;;;;18.40;10.50;;;;;;;8.20;100.00;99994.05;273814;1266;22452;-91
2023/05/18 20:42:03;;;;;;;17.10;10.30;;;;;;;8.20;100.00;99999.22;273630;1266;23998;-91
2023/05/18 20:48:06;;;;;;;22.90;11.10;;;;;;;8.18;100.00;99996.98;272281;1267;23444;-90
2023/05/18 20:54:13;;;;;;;15.90;10.50;;;;;;;8.19;100.00;100000.50;273967;1266;22473;-90
2023/05/18 21:00:17;;;;;;;19.50;10.80;;;;;;;8.20;100.00;100002.94;273572;1267;22563;-91
2023/05/18 21:06:20;;;;;;;17.60;10.40;;;;;;;8.20;100.00;99999.98;272122;1266;22861;-90
2023/05/18 21:12:27;;;;;;;27.20;13.60;;;;;;;8.20;100.00;100000.08;271378;1267;22592;-91
2023/05/18 21:18:29;;;;;;;21.70;11.70;;;;;;;8.21;100.00;99997.09;271925;1267;22390;-91
2023/05/18 21:24:30;;;;;;;20.10;10.90;;;;;;;8.22;100.00;99992.89;273618;1267;22406;-91
2023/05/18 21:30:35;;;;;;;18.20;13.00;;;;;;;8.21;100.00;99991.44;273822;1266;22697;-92
2023/05/18 21:44:36;;;;;;;;;;;;;;;8.25;100.00;99996.23;273532;1266;22518;-92
2023/05/18 21:50:40;;;;;;;19.90;13.00;;;;;;;8.26;100.00;99995.79;273466;1266;22462;-90
2023/05/18 22:04:23;;;;;;;18.40;12.90;;;;;;;8.26;100.00;99991.98;273629;1266;22409;-92
2023/05/18 22:10:25;;;;;;;24.10;13.50;;;;;;;8.24;100.00;99990.73;273095;1266;22461;-91
2023/05/18 22:16:26;;;;;;;22.30;13.80;;;;;;;8.23;100.00;99987.61;272838;1267;22526;-90
2023/05/18 22:22:28;;;;;;;21.30;12.80;;;;;;;8.26;100.00;99986.69;273191;1266;22516;-90
2023/05/18 22:28:35;;;;;;;21.40;11.00;;;;;;;8.29;100.00;99982.80;273913;1266;23462;-92
2023/05/18 22:34:38;;;;;;;18.80;11.30;;;;;;;8.31;100.00;99983.74;273375;1266;23434;-91
2023/05/18 22:40:40;;;;;;;16.60;10.20;;;;;;;8.32;100.00;99986.27;271993;1267;23394;-91
2023/05/18 22:46:45;;;;;;;17.60;9.70;;;;;;;8.33;100.00;99984.29;272104;1266;23341;-91
2023/05/18 22:52:50;;;;;;;17.20;10.00;;;;;;;8.34;100.00;99981.27;273421;1266;23942;-90
2023/05/18 22:59:05;;;;;;;16.30;10.50;;;;;;;8.34;100.00;99988.93;270417;1266;22686;-90
2023/05/18 23:05:07;;;;;;;18.10;10.40;;;;;;;8.32;100.00;99985.82;269897;1266;24943;-90
2023/05/18 23:11:09;;;;;;;17.50;10.90;;;;;;;8.30;100.00;99986.77;270462;1266;23267;-91
2023/05/18 23:17:11;;;;;;;15.90;9.60;;;;;;;8.31;100.00;99990.75;270383;1266;22534;-91
2023/05/18 23:23:12;;;;;;;12.60;9.10;;;;;;;8.32;100.00;99993.63;270294;1266;23008;-91
2023/05/18 23:29:14;;;;;;;15.40;10.40;;;;;;;8.32;100.00;99987.45;270646;1266;24259;-90
2023/05/18 23:35:16;;;;;;;15.90;10.60;;;;;;;8.28;100.00;99976.88;273300;1266;22408;-92
2023/05/18 23:41:18;;;;;;;16.00;10.20;;;;;;;8.26;100.00;99971.41;272575;1267;23292;-91
2023/05/18 23:47:20;;;;;;;17.80;10.60;;;;;;;8.27;100.00;99970.20;273206;1266;22318;-90
2023/05/18 23:53:22;;;;;;;19.00;10.70;;;;;;;8.27;100.00;99966.01;273264;1266;22547;-91
2023/05/18 23:59:24;;;;;;;14.90;9.30;;;;;;;8.27;100.00;99959.52;273871;1266;22208;-91
